createdAt,value
2017-12-03T00:00:04.879Z,49
2017-12-03T00:15:07.494Z,50
2017-12-03T00:30:08.141Z,49
2017-12-03T00:45:05.008Z,50
2017-12-03T01:00:04.922Z,48
2017-12-03T01:15:04.868Z,49
2017-12-03T01:30:04.965Z,49
2017-12-03T01:45:05.392Z,49
2017-12-03T02:00:07.749Z,50
2017-12-03T02:15:08.505Z,51
2017-12-03T02:30:05.512Z,51
2017-12-03T02:45:04.630Z,50
2017-12-03T03:00:11.200Z,50
2017-12-03T03:15:04.821Z,50
2017-12-03T03:30:07.996Z,50
2017-12-03T03:45:12.491Z,49
2017-12-03T04:00:04.510Z,50
2017-12-03T04:15:04.940Z,50
2017-12-03T04:30:04.724Z,49
2017-12-03T04:45:05.382Z,50
2017-12-03T05:00:05.469Z,50
2017-12-03T05:15:04.381Z,50
2017-12-03T05:30:04.762Z,50
2017-12-03T05:45:05.299Z,50
2017-12-03T06:00:11.776Z,50
2017-12-03T06:15:08.544Z,50
2017-12-03T06:30:06.195Z,50
2017-12-03T06:45:04.717Z,50
2017-12-03T07:00:06.269Z,50
2017-12-03T07:15:08.309Z,49
2017-12-03T07:30:05.056Z,49
2017-12-03T07:45:05.518Z,50
2017-12-03T08:00:05.014Z,49
2017-12-03T08:15:05.120Z,50
2017-12-03T08:30:04.885Z,50
2017-12-03T08:45:06.292Z,50
2017-12-03T09:00:07.866Z,51
2017-12-03T09:15:05.479Z,50
2017-12-03T09:30:08.355Z,50
2017-12-03T09:45:05.226Z,50
2017-12-03T10:00:05.877Z,51
2017-12-03T10:15:05.965Z,50
2017-12-03T10:30:04.945Z,50
2017-12-03T10:45:04.428Z,50
2017-12-03T11:00:04.504Z,49
2017-12-03T11:15:04.923Z,49
2017-12-03T11:30:05.873Z,49
2017-12-03T11:45:06.272Z,49
2017-12-03T12:00:04.922Z,49
2017-12-03T12:15:07.316Z,49
2017-12-03T12:30:05.960Z,49
2017-12-03T12:45:09.341Z,50
2017-12-03T13:00:04.799Z,51
2017-12-03T13:15:04.740Z,50
2017-12-03T13:30:04.295Z,50
2017-12-03T13:45:07.705Z,49
2017-12-03T14:00:05.103Z,48
2017-12-03T14:15:04.989Z,49
2017-12-03T14:30:04.540Z,49
2017-12-03T14:45:04.906Z,51
2017-12-03T15:00:04.763Z,49
2017-12-03T15:15:05.251Z,49
2017-12-03T15:30:04.324Z,50
2017-12-03T15:45:07.448Z,51
2017-12-03T16:00:04.761Z,51
2017-12-03T16:15:04.611Z,51
2017-12-03T16:30:05.354Z,50
2017-12-03T16:45:04.811Z,50
2017-12-03T17:00:05.186Z,51
2017-12-03T17:15:05.816Z,52
2017-12-03T17:30:05.160Z,52
2017-12-03T17:47:14.959Z,51
2017-12-03T18:00:04.440Z,49
2017-12-03T18:15:06.037Z,49
2017-12-03T18:30:05.235Z,51
2017-12-03T18:45:05.323Z,50
2017-12-03T19:00:11.866Z,50
2017-12-03T19:15:07.391Z,52
2017-12-03T19:30:06.401Z,53
2017-12-03T19:45:05.709Z,52
2017-12-03T20:00:04.602Z,52
2017-12-03T20:15:05.281Z,54
2017-12-03T20:30:04.775Z,55
2017-12-03T20:45:05.148Z,56
2017-12-03T21:00:05.258Z,56
2017-12-03T21:15:05.194Z,53
2017-12-03T21:30:07.808Z,54
2017-12-03T21:45:06.515Z,54
2017-12-03T22:00:05.714Z,52
2017-12-03T22:15:07.872Z,53
2017-12-03T22:30:05.587Z,53
2017-12-03T22:45:07.714Z,50
2017-12-03T23:00:04.729Z,50
2017-12-03T23:15:06.624Z,49
2017-12-03T23:30:05.497Z,49
2017-12-03T23:45:07.547Z,49
